sensor_id;sensor_type;location;lat;lon;timestamp;pressure;altitude;pressure_sealevel;temperature;humidity
54146;BME280;65909;49.422;7.738;2023-04-08T00:00:14;77042.94;;;-145.25;96.17
54146;BME280;65909;49.422;7.738;2023-04-08T00:02:40;77056.97;;;-145.25;96.30
54146;BME280;65909;49.422;7.738;2023-04-08T00:05:06;77056.97;;;-145.25;95.97
54146;BME280;65909;49.422;7.738;2023-04-08T00:07:32;77056.97;;;-145.25;96.13
54146;BME280;65909;49.422;7.738;2023-04-08T00:09:57;77071.00;;;-145.25;95.54
54146;BME280;65909;49.422;7.738;2023-04-08T00:12:23;77075.03;;;-145.25;95.82
54146;BME280;65909;49.422;7.738;2023-04-08T00:14:48;77075.03;;;-145.25;95.73
54146;BME280;65909;49.422;7.738;2023-04-08T00:17:14;77093.06;;;-145.25;95.25
54146;BME280;65909;49.422;7.738;2023-04-08T00:19:39;77095.06;;;-145.25;95.59
54146;BME280;65909;49.422;7.738;2023-04-08T00:22:05;77109.09;;;-145.25;95.85
54146;BME280;65909;49.422;7.738;2023-04-08T00:24:31;77107.09;;;-145.25;96.06
54146;BME280;65909;49.422;7.738;2023-04-08T00:26:56;77107.09;;;-145.25;95.95
54146;BME280;65909;49.422;7.738;2023-04-08T00:29:22;77109.09;;;-145.25;96.12
54146;BME280;65909;49.422;7.738;2023-04-08T00:31:47;77117.13;;;-145.25;95.79
54146;BME280;65909;49.422;7.738;2023-04-08T00:34:13;77121.13;;;-145.25;95.70
54146;BME280;65909;49.422;7.738;2023-04-08T00:36:38;77133.16;;;-145.25;95.41
54146;BME280;65909;49.422;7.738;2023-04-08T00:39:04;77137.19;;;-145.25;95.53
54146;BME280;65909;49.422;7.738;2023-04-08T00:41:32;77137.19;;;-145.25;95.75
54146;BME280;65909;49.422;7.738;2023-04-08T00:43:57;77139.19;;;-145.25;95.89
54146;BME280;65909;49.422;7.738;2023-04-08T00:46:22;77153.22;;;-145.25;95.95
54146;BME280;65909;49.422;7.738;2023-04-08T00:48:48;77159.22;;;-145.25;95.86
54146;BME280;65909;49.422;7.738;2023-04-08T00:51:13;77141.19;;;-145.25;95.67
54146;BME280;65909;49.422;7.738;2023-04-08T00:53:40;77141.19;;;-145.25;95.51
54146;BME280;65909;49.422;7.738;2023-04-08T00:56:05;77145.19;;;-145.25;95.96
54146;BME280;65909;49.422;7.738;2023-04-08T00:58:31;77147.22;;;-145.25;95.53
54146;BME280;65909;49.422;7.738;2023-04-08T01:01:02;77145.19;;;-145.25;95.43
54146;BME280;65909;49.422;7.738;2023-04-08T01:08:59;77169.25;;;-145.25;95.72
54146;BME280;65909;49.422;7.738;2023-04-08T01:11:26;77175.28;;;-145.25;95.86
54146;BME280;65909;49.422;7.738;2023-04-08T01:13:53;77193.31;;;-145.25;95.67
54146;BME280;65909;49.422;7.738;2023-04-08T01:16:21;77177.28;;;-145.25;95.74
54146;BME280;65909;49.422;7.738;2023-04-08T01:18:49;77171.28;;;-145.25;95.03
54146;BME280;65909;49.422;7.738;2023-04-08T01:21:17;77181.28;;;-145.25;95.31
54146;BME280;65909;49.422;7.738;2023-04-08T01:24:05;77183.31;;;-145.25;95.39
54146;BME280;65909;49.422;7.738;2023-04-08T01:26:34;77195.34;;;-145.25;95.32
54146;BME280;65909;49.422;7.738;2023-04-08T01:29:01;77189.31;;;-145.25;95.09
54146;BME280;65909;49.422;7.738;2023-04-08T01:31:27;77197.34;;;-145.25;94.87
54146;BME280;65909;49.422;7.738;2023-04-08T01:33:54;77203.34;;;-145.25;95.18
54146;BME280;65909;49.422;7.738;2023-04-08T01:36:21;77221.41;;;-145.25;95.43
54146;BME280;65909;49.422;7.738;2023-04-08T01:38:48;77231.44;;;-145.25;95.29
54146;BME280;65909;49.422;7.738;2023-04-08T01:41:16;77219.41;;;-145.25;95.71
54146;BME280;65909;49.422;7.738;2023-04-08T01:43:42;77217.38;;;-145.25;95.59
54146;BME280;65909;49.422;7.738;2023-04-08T01:46:09;77217.38;;;-145.25;95.38
54146;BME280;65909;49.422;7.738;2023-04-08T01:48:37;77221.41;;;-145.25;95.08
54146;BME280;65909;49.422;7.738;2023-04-08T01:51:04;77233.44;;;-145.25;94.92
54146;BME280;65909;49.422;7.738;2023-04-08T01:53:30;77239.44;;;-145.25;95.22
54146;BME280;65909;49.422;7.738;2023-04-08T01:56:08;77237.44;;;-145.25;94.67
54146;BME280;65909;49.422;7.738;2023-04-08T01:58:38;77249.47;;;-145.25;95.04
54146;BME280;65909;49.422;7.738;2023-04-08T02:01:09;77251.47;;;-145.25;94.91
54146;BME280;65909;49.422;7.738;2023-04-08T02:03:36;77255.50;;;-145.25;94.82
54146;BME280;65909;49.422;7.738;2023-04-08T02:06:02;77263.50;;;-145.25;94.93
54146;BME280;65909;49.422;7.738;2023-04-08T02:08:27;77261.50;;;-145.25;95.01
54146;BME280;65909;49.422;7.738;2023-04-08T02:10:52;77275.53;;;-145.25;95.08
54146;BME280;65909;49.422;7.738;2023-04-08T02:13:18;77291.59;;;-145.25;95.05
54146;BME280;65909;49.422;7.738;2023-04-08T02:15:55;77285.56;;;-145.25;95.64
54146;BME280;65909;49.422;7.738;2023-04-08T02:18:25;77289.56;;;-145.25;95.37
54146;BME280;65909;49.422;7.738;2023-04-08T02:21:13;77291.59;;;-145.25;95.41
54146;BME280;65909;49.422;7.738;2023-04-08T02:23:40;77291.59;;;-145.25;95.17
54146;BME280;65909;49.422;7.738;2023-04-08T02:26:13;77293.59;;;-145.25;95.31
54146;BME280;65909;49.422;7.738;2023-04-08T02:28:40;77315.66;;;-145.25;95.13
54146;BME280;65909;49.422;7.738;2023-04-08T02:31:09;77319.66;;;-145.25;95.46
54146;BME280;65909;49.422;7.738;2023-04-08T02:33:38;77319.66;;;-145.25;95.73
54146;BME280;65909;49.422;7.738;2023-04-08T02:36:04;77319.66;;;-145.25;95.27
54146;BME280;65909;49.422;7.738;2023-04-08T02:38:30;77329.69;;;-145.25;95.18
54146;BME280;65909;49.422;7.738;2023-04-08T02:40:56;77327.69;;;-145.25;95.28
54146;BME280;65909;49.422;7.738;2023-04-08T02:43:21;77329.69;;;-145.25;95.18
54146;BME280;65909;49.422;7.738;2023-04-08T02:45:51;77319.66;;;-145.25;94.67
54146;BME280;65909;49.422;7.738;2023-04-08T02:48:16;77331.69;;;-145.25;95.17
54146;BME280;65909;49.422;7.738;2023-04-08T02:50:41;77337.69;;;-145.25;95.33
54146;BME280;65909;49.422;7.738;2023-04-08T02:53:07;77333.69;;;-145.25;95.48
54146;BME280;65909;49.422;7.738;2023-04-08T02:55:33;77345.72;;;-145.25;95.41
54146;BME280;65909;49.422;7.738;2023-04-08T02:57:58;77347.72;;;-145.25;95.23
54146;BME280;65909;49.422;7.738;2023-04-08T03:00:24;77361.78;;;-145.25;94.89
54146;BME280;65909;49.422;7.738;2023-04-08T03:02:49;77349.75;;;-145.25;95.02
54146;BME280;65909;49.422;7.738;2023-04-08T03:05:14;77355.75;;;-145.25;95.12
54146;BME280;65909;49.422;7.738;2023-04-08T03:07:40;77363.78;;;-145.25;94.58
54146;BME280;65909;49.422;7.738;2023-04-08T03:10:06;77359.75;;;-145.25;94.88
54146;BME280;65909;49.422;7.738;2023-04-08T03:12:32;77369.78;;;-145.25;94.20
54146;BME280;65909;49.422;7.738;2023-04-08T03:14:57;77383.81;;;-145.25;94.59
54146;BME280;65909;49.422;7.738;2023-04-08T03:17:23;77385.84;;;-145.25;94.74
54146;BME280;65909;49.422;7.738;2023-04-08T03:19:48;77385.84;;;-145.25;94.68
54146;BME280;65909;49.422;7.738;2023-04-08T03:22:13;77385.84;;;-145.25;94.54
54146;BME280;65909;49.422;7.738;2023-04-08T03:24:39;77403.88;;;-145.25;94.51
54146;BME280;65909;49.422;7.738;2023-04-08T03:27:05;77399.88;;;-145.25;94.89
54146;BME280;65909;49.422;7.738;2023-04-08T03:29:30;77411.91;;;-145.25;94.46
54146;BME280;65909;49.422;7.738;2023-04-08T03:31:56;77417.91;;;-145.25;94.63
54146;BME280;65909;49.422;7.738;2023-04-08T03:34:21;77413.91;;;-145.25;94.46
54146;BME280;65909;49.422;7.738;2023-04-08T03:36:46;77423.94;;;-145.25;94.26
54146;BME280;65909;49.422;7.738;2023-04-08T03:39:12;77417.91;;;-145.25;94.31
54146;BME280;65909;49.422;7.738;2023-04-08T03:41:37;77437.97;;;-145.25;94.61
54146;BME280;65909;49.422;7.738;2023-04-08T03:44:03;77468.06;;;-145.25;94.58
54146;BME280;65909;49.422;7.738;2023-04-08T03:46:28;77454.00;;;-145.25;95.30
54146;BME280;65909;49.422;7.738;2023-04-08T03:48:53;77448.00;;;-145.25;95.30
54146;BME280;65909;49.422;7.738;2023-04-08T03:51:19;77444.00;;;-145.25;95.21
54146;BME280;65909;49.422;7.738;2023-04-08T03:53:44;77439.97;;;-145.25;94.79
54146;BME280;65909;49.422;7.738;2023-04-08T03:56:09;77452.00;;;-145.25;94.35
54146;BME280;65909;49.422;7.738;2023-04-08T03:58:35;77456.03;;;-145.25;94.19
54146;BME280;65909;49.422;7.738;2023-04-08T04:01:00;77460.03;;;-145.25;94.60
54146;BME280;65909;49.422;7.738;2023-04-08T04:03:26;77456.03;;;-145.25;94.68
54146;BME280;65909;49.422;7.738;2023-04-08T04:05:51;77458.03;;;-145.25;94.02
54146;BME280;65909;49.422;7.738;2023-04-08T04:08:17;77462.03;;;-145.25;94.28
54146;BME280;65909;49.422;7.738;2023-04-08T04:10:42;77464.03;;;-145.25;94.61
54146;BME280;65909;49.422;7.738;2023-04-08T04:13:08;77458.03;;;-145.25;94.22
54146;BME280;65909;49.422;7.738;2023-04-08T04:15:37;77474.06;;;-145.25;94.27
54146;BME280;65909;49.422;7.738;2023-04-08T04:18:03;77478.06;;;-145.25;94.08
54146;BME280;65909;49.422;7.738;2023-04-08T04:20:29;77476.06;;;-145.25;93.92
54146;BME280;65909;49.422;7.738;2023-04-08T04:22:54;77484.09;;;-145.25;94.17
54146;BME280;65909;49.422;7.738;2023-04-08T04:25:20;77486.09;;;-145.25;93.95
54146;BME280;65909;49.422;7.738;2023-04-08T04:27:45;77496.13;;;-145.25;94.28
54146;BME280;65909;49.422;7.738;2023-04-08T04:30:11;77492.13;;;-145.25;93.63
54146;BME280;65909;49.422;7.738;2023-04-08T04:32:39;77490.09;;;-145.25;94.11
54146;BME280;65909;49.422;7.738;2023-04-08T04:35:05;77498.13;;;-145.25;94.07
54146;BME280;65909;49.422;7.738;2023-04-08T04:37:31;77496.13;;;-145.25;93.95
54146;BME280;65909;49.422;7.738;2023-04-08T04:39:56;77498.13;;;-145.25;93.71
54146;BME280;65909;49.422;7.738;2023-04-08T04:42:21;77492.13;;;-145.25;93.76
54146;BME280;65909;49.422;7.738;2023-04-08T04:44:47;77496.13;;;-145.25;93.60
54146;BME280;65909;49.422;7.738;2023-04-08T04:47:12;77494.13;;;-145.25;93.04
54146;BME280;65909;49.422;7.738;2023-04-08T04:49:37;77512.16;;;-145.25;92.79
54146;BME280;65909;49.422;7.738;2023-04-08T04:52:04;77514.16;;;-145.25;92.90
54146;BME280;65909;49.422;7.738;2023-04-08T04:54:29;77508.16;;;-145.25;93.10
54146;BME280;65909;49.422;7.738;2023-04-08T04:56:55;77516.19;;;-145.25;93.12
54146;BME280;65909;49.422;7.738;2023-04-08T04:59:20;77514.16;;;-145.25;93.42
54146;BME280;65909;49.422;7.738;2023-04-08T05:01:46;77516.19;;;-145.25;93.38
54146;BME280;65909;49.422;7.738;2023-04-08T05:04:11;77512.16;;;-145.25;93.35
54146;BME280;65909;49.422;7.738;2023-04-08T05:06:36;77514.16;;;-145.25;93.04
54146;BME280;65909;49.422;7.738;2023-04-08T05:09:02;77506.16;;;-145.25;93.08
54146;BME280;65909;49.422;7.738;2023-04-08T05:11:27;77508.16;;;-145.25;93.23
54146;BME280;65909;49.422;7.738;2023-04-08T05:13:52;77514.16;;;-145.25;93.10
54146;BME280;65909;49.422;7.738;2023-04-08T05:16:18;77512.16;;;-145.25;93.20
54146;BME280;65909;49.422;7.738;2023-04-08T05:18:43;77508.16;;;-145.25;93.61
54146;BME280;65909;49.422;7.738;2023-04-08T05:21:09;77514.16;;;-145.25;93.51
54146;BME280;65909;49.422;7.738;2023-04-08T05:23:34;77522.19;;;-145.25;93.47
54146;BME280;65909;49.422;7.738;2023-04-08T05:26:00;77504.16;;;-145.25;93.79
54146;BME280;65909;49.422;7.738;2023-04-08T05:28:25;77502.13;;;-145.25;93.87
54146;BME280;65909;49.422;7.738;2023-04-08T05:30:51;77488.09;;;-145.25;93.82
54146;BME280;65909;49.422;7.738;2023-04-08T05:33:18;77474.06;;;-145.25;93.79
54146;BME280;65909;49.422;7.738;2023-04-08T05:35:43;77470.06;;;-145.25;93.82
54146;BME280;65909;49.422;7.738;2023-04-08T05:38:10;77470.06;;;-145.25;93.50
54146;BME280;65909;49.422;7.738;2023-04-08T05:40:35;77466.03;;;-145.25;93.38
54146;BME280;65909;49.422;7.738;2023-04-08T05:43:00;77464.03;;;-145.25;92.90
54146;BME280;65909;49.422;7.738;2023-04-08T05:45:29;77454.00;;;-145.25;92.77
54146;BME280;65909;49.422;7.738;2023-04-08T05:47:54;77448.00;;;-145.25;92.51
54146;BME280;65909;49.422;7.738;2023-04-08T05:50:20;77452.00;;;-145.25;93.24
54146;BME280;65909;49.422;7.738;2023-04-08T05:52:45;77450.00;;;-145.25;93.15
54146;BME280;65909;49.422;7.738;2023-04-08T05:55:12;77439.97;;;-145.25;93.38
54146;BME280;65909;49.422;7.738;2023-04-08T05:57:37;77439.97;;;-145.25;93.70
54146;BME280;65909;49.422;7.738;2023-04-08T06:00:07;77437.97;;;-145.25;93.66
54146;BME280;65909;49.422;7.738;2023-04-08T06:02:34;77439.97;;;-145.25;93.66
54146;BME280;65909;49.422;7.738;2023-04-08T06:05:00;77425.94;;;-145.25;93.48
54146;BME280;65909;49.422;7.738;2023-04-08T06:07:26;77425.94;;;-145.25;93.19
54146;BME280;65909;49.422;7.738;2023-04-08T06:09:51;77413.91;;;-145.25;93.24
54146;BME280;65909;49.422;7.738;2023-04-08T06:12:16;77405.88;;;-145.25;93.15
54146;BME280;65909;49.422;7.738;2023-04-08T06:14:42;77401.88;;;-145.25;92.94
54146;BME280;65909;49.422;7.738;2023-04-08T06:17:07;77401.88;;;-145.25;92.89
54146;BME280;65909;49.422;7.738;2023-04-08T06:19:33;77403.88;;;-145.25;92.42
54146;BME280;65909;49.422;7.738;2023-04-08T06:21:59;77385.84;;;-145.25;92.99
54146;BME280;65909;49.422;7.738;2023-04-08T06:24:27;77379.81;;;-145.25;92.37
54146;BME280;65909;49.422;7.738;2023-04-08T06:26:54;77377.81;;;-145.25;92.67
54146;BME280;65909;49.422;7.738;2023-04-08T06:29:20;77377.81;;;-145.25;92.62
54146;BME280;65909;49.422;7.738;2023-04-08T06:31:46;77369.78;;;-145.25;92.92
54146;BME280;65909;49.422;7.738;2023-04-08T06:34:11;77375.81;;;-145.25;93.04
54146;BME280;65909;49.422;7.738;2023-04-08T06:36:37;77359.75;;;-145.25;92.94
54146;BME280;65909;49.422;7.738;2023-04-08T06:39:02;77349.75;;;-145.25;92.76
54146;BME280;65909;49.422;7.738;2023-04-08T06:41:28;77331.69;;;-145.25;92.87
54146;BME280;65909;49.422;7.738;2023-04-08T06:43:54;77325.66;;;-145.25;92.43
54146;BME280;65909;49.422;7.738;2023-04-08T06:46:19;77329.69;;;-145.25;92.30
54146;BME280;65909;49.422;7.738;2023-04-08T06:48:45;77319.66;;;-145.25;92.85
54146;BME280;65909;49.422;7.738;2023-04-08T06:51:11;77313.63;;;-145.25;92.90
54146;BME280;65909;49.422;7.738;2023-04-08T06:53:36;77295.59;;;-145.25;92.73
54146;BME280;65909;49.422;7.738;2023-04-08T06:56:01;77287.56;;;-145.25;92.52
54146;BME280;65909;49.422;7.738;2023-04-08T06:58:27;77277.53;;;-145.25;92.03
54146;BME280;65909;49.422;7.738;2023-04-08T07:00:54;77269.53;;;-145.25;92.17
54146;BME280;65909;49.422;7.738;2023-04-08T07:03:20;77263.50;;;-145.25;91.73
54146;BME280;65909;49.422;7.738;2023-04-08T07:05:46;77243.47;;;-145.25;91.24
54146;BME280;65909;49.422;7.738;2023-04-08T07:08:11;77241.44;;;-145.25;91.08
54146;BME280;65909;49.422;7.738;2023-04-08T07:10:37;77229.41;;;-145.25;90.60
54146;BME280;65909;49.422;7.738;2023-04-08T07:13:02;77225.41;;;-145.25;90.35
54146;BME280;65909;49.422;7.738;2023-04-08T07:15:28;77219.41;;;-145.25;89.96
54146;BME280;65909;49.422;7.738;2023-04-08T07:17:53;77211.38;;;-145.25;89.86
54146;BME280;65909;49.422;7.738;2023-04-08T07:20:21;77205.34;;;-145.25;90.06
54146;BME280;65909;49.422;7.738;2023-04-08T07:22:47;77211.38;;;-145.25;89.93
54146;BME280;65909;49.422;7.738;2023-04-08T07:25:12;77209.38;;;-145.25;90.11
54146;BME280;65909;49.422;7.738;2023-04-08T07:27:37;77197.34;;;-145.25;89.76
54146;BME280;65909;49.422;7.738;2023-04-08T07:30:03;77201.34;;;-145.25;89.63
54146;BME280;65909;49.422;7.738;2023-04-08T07:32:29;77207.38;;;-145.25;90.11
54146;BME280;65909;49.422;7.738;2023-04-08T07:34:54;77203.34;;;-145.25;90.39
54146;BME280;65909;49.422;7.738;2023-04-08T07:37:19;77199.34;;;-145.25;90.16
54146;BME280;65909;49.422;7.738;2023-04-08T07:39:45;77181.28;;;-145.25;89.41
54146;BME280;65909;49.422;7.738;2023-04-08T07:42:10;77191.31;;;-145.25;89.41
54146;BME280;65909;49.422;7.738;2023-04-08T07:44:36;77183.31;;;-145.25;89.62
54146;BME280;65909;49.422;7.738;2023-04-08T07:47:02;77175.28;;;-145.25;89.01
54146;BME280;65909;49.422;7.738;2023-04-08T07:49:27;77161.25;;;-145.25;88.76
54146;BME280;65909;49.422;7.738;2023-04-08T07:51:53;77161.25;;;-145.25;88.55
54146;BME280;65909;49.422;7.738;2023-04-08T07:54:18;77155.22;;;-145.25;88.53
54146;BME280;65909;49.422;7.738;2023-04-08T07:56:44;77149.22;;;-145.25;88.20
54146;BME280;65909;49.422;7.738;2023-04-08T07:59:10;77149.22;;;-145.25;86.87
54146;BME280;65909;49.422;7.738;2023-04-08T08:01:35;77139.19;;;-145.25;86.38
54146;BME280;65909;49.422;7.738;2023-04-08T08:04:01;77155.22;;;-145.25;86.33
54146;BME280;65909;49.422;7.738;2023-04-08T08:06:27;77151.22;;;-145.25;86.28
54146;BME280;65909;49.422;7.738;2023-04-08T08:08:53;77151.22;;;-145.25;85.81
54146;BME280;65909;49.422;7.738;2023-04-08T08:11:18;77151.22;;;-145.25;84.34
54146;BME280;65909;49.422;7.738;2023-04-08T08:13:43;77161.25;;;-145.25;82.63
54146;BME280;65909;49.422;7.738;2023-04-08T08:16:09;77153.22;;;-145.25;82.35
54146;BME280;65909;49.422;7.738;2023-04-08T08:18:36;77165.25;;;-145.25;82.12
54146;BME280;65909;49.422;7.738;2023-04-08T08:21:01;77161.25;;;-145.25;82.51
54146;BME280;65909;49.422;7.738;2023-04-08T08:23:27;77163.25;;;-145.25;82.64
54146;BME280;65909;49.422;7.738;2023-04-08T08:26:03;77179.28;;;-145.25;82.96
54146;BME280;65909;49.422;7.738;2023-04-08T08:28:30;77183.31;;;-145.25;84.15
54146;BME280;65909;49.422;7.738;2023-04-08T08:30:56;77197.34;;;-145.25;84.90
54146;BME280;65909;49.422;7.738;2023-04-08T08:33:21;77191.31;;;-145.25;86.47
54146;BME280;65909;49.422;7.738;2023-04-08T08:35:47;77203.34;;;-145.25;87.00
54146;BME280;65909;49.422;7.738;2023-04-08T08:38:12;77195.34;;;-145.25;86.58
54146;BME280;65909;49.422;7.738;2023-04-08T08:40:38;77197.34;;;-145.25;86.27
54146;BME280;65909;49.422;7.738;2023-04-08T08:43:04;77189.31;;;-145.25;87.37
54146;BME280;65909;49.422;7.738;2023-04-08T08:45:29;77177.28;;;-145.25;87.72
54146;BME280;65909;49.422;7.738;2023-04-08T08:47:55;77177.28;;;-145.25;88.71
54146;BME280;65909;49.422;7.738;2023-04-08T08:50:21;77151.22;;;-145.25;87.10
54146;BME280;65909;49.422;7.738;2023-04-08T08:52:48;77141.19;;;-145.25;85.83
54146;BME280;65909;49.422;7.738;2023-04-08T08:55:16;77129.16;;;-145.25;86.31
54146;BME280;65909;49.422;7.738;2023-04-08T08:57:42;77119.13;;;-145.25;85.85
54146;BME280;65909;49.422;7.738;2023-04-08T09:00:07;77101.09;;;-145.25;84.01
54146;BME280;65909;49.422;7.738;2023-04-08T09:02:33;77095.06;;;-145.25;82.43
54146;BME280;65909;49.422;7.738;2023-04-08T09:05:02;77099.09;;;-145.25;81.61
54146;BME280;65909;49.422;7.738;2023-04-08T09:07:30;77089.06;;;-145.25;81.21
54146;BME280;65909;49.422;7.738;2023-04-08T09:09:58;77058.97;;;-145.25;80.78
54146;BME280;65909;49.422;7.738;2023-04-08T09:12:24;77042.94;;;-145.25;81.12
54146;BME280;65909;49.422;7.738;2023-04-08T09:15:02;77030.91;;;-145.25;80.95
54146;BME280;65909;49.422;7.738;2023-04-08T09:17:35;77008.84;;;-145.25;77.19
54146;BME280;65909;49.422;7.738;2023-04-08T09:20:08;77006.84;;;-145.25;77.97
54146;BME280;65909;49.422;7.738;2023-04-08T09:23:02;76992.81;;;-145.25;78.35
54146;BME280;65909;49.422;7.738;2023-04-08T09:25:29;76960.72;;;-145.25;76.04
54146;BME280;65909;49.422;7.738;2023-04-08T09:27:56;76942.69;;;-145.25;71.62
54146;BME280;65909;49.422;7.738;2023-04-08T09:30:23;76946.69;;;-145.25;72.18
54146;BME280;65909;49.422;7.738;2023-04-08T09:32:50;76952.72;;;-145.25;73.75
54146;BME280;65909;49.422;7.738;2023-04-08T09:35:17;76952.72;;;-145.25;71.59
54146;BME280;65909;49.422;7.738;2023-04-08T09:37:43;76962.72;;;-145.25;72.70
54146;BME280;65909;49.422;7.738;2023-04-08T09:40:08;76968.75;;;-145.25;71.98
54146;BME280;65909;49.422;7.738;2023-04-08T09:42:39;76970.75;;;-145.25;72.22
54146;BME280;65909;49.422;7.738;2023-04-08T09:45:05;76970.75;;;-145.25;70.86
54146;BME280;65909;49.422;7.738;2023-04-08T09:47:36;76966.75;;;-145.25;72.11
54146;BME280;65909;49.422;7.738;2023-04-08T09:50:05;76966.75;;;-145.25;72.32
54146;BME280;65909;49.422;7.738;2023-04-08T09:52:40;76966.75;;;-145.25;70.70
54146;BME280;65909;49.422;7.738;2023-04-08T09:55:08;76948.69;;;-145.25;70.54
54146;BME280;65909;49.422;7.738;2023-04-08T10:00:11;76822.38;;;-145.25;68.75
54146;BME280;65909;49.422;7.738;2023-04-08T10:05:17;76784.28;;;-145.25;64.75
54146;BME280;65909;49.422;7.738;2023-04-08T10:07:43;76740.16;;;-145.25;63.97
54146;BME280;65909;49.422;7.738;2023-04-08T10:10:09;76722.13;;;-145.25;64.53
54146;BME280;65909;49.422;7.738;2023-04-08T10:12:38;76720.13;;;-145.25;64.64
54146;BME280;65909;49.422;7.738;2023-04-08T10:15:25;76714.09;;;-145.25;63.58
54146;BME280;65909;49.422;7.738;2023-04-08T10:18:34;76708.09;;;-145.25;62.19
54146;BME280;65909;49.422;7.738;2023-04-08T10:20:45;76682.03;;;-145.25;63.16
54146;BME280;65909;49.422;7.738;2023-04-08T10:23:13;76637.91;;;-145.25;62.65
54146;BME280;65909;49.422;7.738;2023-04-08T10:25:39;76672.00;;;-145.25;71.74
54146;BME280;65909;49.422;7.738;2023-04-08T10:38:23;76375.28;;;-145.25;57.71
54146;BME280;65909;49.422;7.738;2023-04-08T10:40:49;76323.16;;;-145.25;56.87
54146;BME280;65909;49.422;7.738;2023-04-08T10:43:15;76291.06;;;-145.25;54.77
54146;BME280;65909;49.422;7.738;2023-04-08T10:45:41;76329.16;;;-145.25;54.68
54146;BME280;65909;49.422;7.738;2023-04-08T10:48:19;76331.16;;;-145.25;56.19
54146;BME280;65909;49.422;7.738;2023-04-08T10:50:53;76339.19;;;-145.25;55.36
54146;BME280;65909;49.422;7.738;2023-04-08T10:53:37;76349.22;;;-145.25;56.12
54146;BME280;65909;49.422;7.738;2023-04-08T10:58:53;76401.34;;;-145.25;55.08
54146;BME280;65909;49.422;7.738;2023-04-08T11:01:23;76431.41;;;-145.25;57.27
54146;BME280;65909;49.422;7.738;2023-04-08T11:03:49;76425.41;;;-145.25;57.35
54146;BME280;65909;49.422;7.738;2023-04-08T11:06:14;76467.50;;;-145.25;56.37
54146;BME280;65909;49.422;7.738;2023-04-08T11:08:40;76485.53;;;-145.25;57.10
54146;BME280;65909;49.422;7.738;2023-04-08T11:11:06;76435.41;;;-145.25;56.66
54146;BME280;65909;49.422;7.738;2023-04-08T11:13:36;76403.34;;;-145.25;56.04
54146;BME280;65909;49.422;7.738;2023-04-08T11:16:03;76381.28;;;-145.25;56.63
54146;BME280;65909;49.422;7.738;2023-04-08T11:18:30;76389.31;;;-145.25;56.06
54146;BME280;65909;49.422;7.738;2023-04-08T11:20:57;76401.34;;;-145.25;55.92
54146;BME280;65909;49.422;7.738;2023-04-08T11:23:25;76439.44;;;-145.25;56.49
54146;BME280;65909;49.422;7.738;2023-04-08T11:25:51;76477.53;;;-145.25;56.66
54146;BME280;65909;49.422;7.738;2023-04-08T11:28:17;76519.63;;;-145.25;57.05
54146;BME280;65909;49.422;7.738;2023-04-08T11:30:43;76535.66;;;-145.25;57.45
54146;BME280;65909;49.422;7.738;2023-04-08T11:33:09;76551.72;;;-145.25;58.79
54146;BME280;65909;49.422;7.738;2023-04-08T11:35:39;76555.72;;;-145.25;60.70
54146;BME280;65909;49.422;7.738;2023-04-08T11:38:07;76559.72;;;-145.25;62.04
54146;BME280;65909;49.422;7.738;2023-04-08T11:40:32;76579.78;;;-145.25;62.28
54146;BME280;65909;49.422;7.738;2023-04-08T11:42:58;76575.75;;;-145.25;60.44
54146;BME280;65909;49.422;7.738;2023-04-08T11:45:23;76533.66;;;-145.25;61.03
54146;BME280;65909;49.422;7.738;2023-04-08T11:47:48;76505.59;;;-145.25;57.91
54146;BME280;65909;49.422;7.738;2023-04-08T11:50:26;76475.53;;;-145.25;57.95
54146;BME280;65909;49.422;7.738;2023-04-08T11:52:54;76461.47;;;-145.25;57.29
54146;BME280;65909;49.422;7.738;2023-04-08T11:55:30;76443.44;;;-145.25;57.24
54146;BME280;65909;49.422;7.738;2023-04-08T11:58:00;76449.44;;;-145.25;59.74
54146;BME280;65909;49.422;7.738;2023-04-08T12:00:26;76461.47;;;-145.25;61.72
54146;BME280;65909;49.422;7.738;2023-04-08T12:02:52;76509.59;;;-145.25;61.64
54146;BME280;65909;49.422;7.738;2023-04-08T12:05:17;76527.66;;;-145.25;63.72
54146;BME280;65909;49.422;7.738;2023-04-08T12:07:43;76507.59;;;-145.25;62.28
54146;BME280;65909;49.422;7.738;2023-04-08T12:10:12;76493.56;;;-145.25;61.62
54146;BME280;65909;49.422;7.738;2023-04-08T12:12:38;76503.59;;;-145.25;60.83
54146;BME280;65909;49.422;7.738;2023-04-08T12:15:04;76489.56;;;-145.25;59.47
54146;BME280;65909;49.422;7.738;2023-04-08T12:17:29;76457.47;;;-145.25;58.70
54146;BME280;65909;49.422;7.738;2023-04-08T12:19:55;76443.44;;;-145.25;59.78
54146;BME280;65909;49.422;7.738;2023-04-08T12:22:21;76399.34;;;-145.25;57.89
54146;BME280;65909;49.422;7.738;2023-04-08T12:24:46;76353.22;;;-145.25;56.30
54146;BME280;65909;49.422;7.738;2023-04-08T12:27:12;76309.13;;;-145.25;55.79
54146;BME280;65909;49.422;7.738;2023-04-08T12:29:37;76285.06;;;-145.25;54.64
54146;BME280;65909;49.422;7.738;2023-04-08T12:32:03;76333.19;;;-145.25;55.38
54146;BME280;65909;49.422;7.738;2023-04-08T12:34:30;76301.09;;;-145.25;55.24
54146;BME280;65909;49.422;7.738;2023-04-08T12:36:55;76307.13;;;-145.25;55.29
54146;BME280;65909;49.422;7.738;2023-04-08T12:39:20;76295.09;;;-145.25;54.06
54146;BME280;65909;49.422;7.738;2023-04-08T12:41:46;76299.09;;;-145.25;54.00
54146;BME280;65909;49.422;7.738;2023-04-08T12:44:11;76313.13;;;-145.25;55.24
54146;BME280;65909;49.422;7.738;2023-04-08T12:46:37;76309.13;;;-145.25;54.75
54146;BME280;65909;49.422;7.738;2023-04-08T12:49:02;76325.16;;;-145.25;55.33
54146;BME280;65909;49.422;7.738;2023-04-08T12:51:28;76341.19;;;-145.25;54.86
54146;BME280;65909;49.422;7.738;2023-04-08T12:53:53;76339.19;;;-145.25;55.32
54146;BME280;65909;49.422;7.738;2023-04-08T12:56:19;76349.22;;;-145.25;55.23
54146;BME280;65909;49.422;7.738;2023-04-08T12:58:45;76353.22;;;-145.25;55.23
54146;BME280;65909;49.422;7.738;2023-04-08T13:01:10;76351.22;;;-145.25;55.57